Time;durP1;ratioP1;P1;durP2;ratioP2;P2;SDS_P1;SDS_P2;PMS_P1;PMS_P2;Temp;Humidity;BMP_temperature;BMP_pressure;BME280_temperature;BME280_humidity;BME280_pressure;Samples;Min_cycle;Max_cycle;Signal;HPM_P1;HPM_P2
2022/04/24 00:02:03;;;;;;;1.97;0.77;;;23.90;99.90;;;;;;5092012;28;20187;-66
2022/04/24 00:04:30;;;;;;;2.47;0.73;;;24.10;99.90;;;;;;5092125;28;20287;-67
2022/04/24 00:06:57;;;;;;;4.07;0.73;;;24.50;99.90;;;;;;5092220;28;20187;-66
2022/04/24 00:09:24;;;;;;;3.50;0.90;;;24.90;99.90;;;;;;5091766;28;20667;-66
2022/04/24 00:11:52;;;;;;;1.23;0.40;;;25.00;99.90;;;;;;5091481;28;20198;-67
2022/04/24 00:14:19;;;;;;;6.30;0.77;;;25.30;99.90;;;;;;5091559;28;20190;-66
2022/04/24 00:16:47;;;;;;;1.33;0.60;;;24.70;99.90;;;;;;5091872;28;20227;-66
2022/04/24 00:19:15;;;;;;;2.07;0.67;;;24.80;99.90;;;;;;5090597;28;20179;-66
2022/04/24 00:21:42;;;;;;;2.47;0.77;;;24.70;99.90;;;;;;5092017;28;20184;-66
2022/04/24 00:24:10;;;;;;;1.57;1.07;;;25.00;99.90;;;;;;5091707;28;20175;-67
2022/04/24 00:26:38;;;;;;;26.27;21.20;;;24.60;99.90;;;;;;5092022;28;20667;-67
2022/04/24 00:29:06;;;;;;;15.57;5.73;;;24.90;99.90;;;;;;5091746;28;20702;-65
2022/04/24 00:31:34;;;;;;;1.87;0.67;;;25.40;99.90;;;;;;5091675;28;20240;-65
2022/04/24 00:34:01;;;;;;;5.20;0.80;;;25.60;99.90;;;;;;5091599;28;20183;-66
2022/04/24 00:36:28;;;;;;;3.50;1.07;;;25.90;99.90;;;;;;5091887;28;20302;-66
2022/04/24 00:38:56;;;;;;;35.40;23.90;;;25.80;99.90;;;;;;5091771;28;20175;-66
2022/04/24 00:41:23;;;;;;;36.73;26.37;;;25.60;99.90;;;;;;5091756;28;20265;-66
2022/04/24 00:43:52;;;;;;;4.80;3.63;;;25.10;99.90;;;;;;5091076;28;20629;-66
2022/04/24 00:46:45;;;;;;;2.40;0.60;;;25.50;99.90;;;;;;5091147;28;20210;-68
2022/04/24 00:49:14;;;;;;;0.60;0.30;;;25.70;99.90;;;;;;5082027;28;20175;-67
2022/04/24 00:51:44;;;;;;;1.13;0.57;;;25.60;99.90;;;;;;5091618;28;20177;-68
2022/04/24 00:54:13;;;;;;;1.57;0.50;;;25.50;99.90;;;;;;5093228;28;20195;-68
2022/04/24 00:56:42;;;;;;;0.90;0.43;;;25.60;99.90;;;;;;5094698;28;20223;-67
2022/04/24 00:59:11;;;;;;;1.20;0.40;;;25.90;99.90;;;;;;5095076;28;20704;-67
2022/04/24 01:01:40;;;;;;;0.80;0.50;;;26.30;99.90;;;;;;5095052;28;20176;-67
2022/04/24 01:04:09;;;;;;;2.40;0.80;;;26.30;99.90;;;;;;5094939;28;20171;-67
2022/04/24 01:06:41;;;;;;;1.20;0.40;;;26.60;99.90;;;;;;5095183;28;20183;-67
2022/04/24 01:09:15;;;;;;;3.33;0.30;;;26.10;99.90;;;;;;5095022;28;20183;-67
2022/04/24 01:11:44;;;;;;;2.30;0.40;;;25.20;99.90;;;;;;5094647;28;20179;-67
2022/04/24 01:14:12;;;;;;;0.67;0.40;;;24.50;99.90;;;;;;5095030;28;20206;-68
2022/04/24 01:16:40;;;;;;;2.83;0.37;;;23.80;99.90;;;;;;5094796;28;20219;-67
2022/04/24 01:19:07;;;;;;;1.00;0.60;;;22.80;99.90;;;;;;5095132;28;20179;-67
2022/04/24 01:21:35;;;;;;;11.37;7.33;;;23.20;99.90;;;;;;5094516;28;20182;-68
2022/04/24 01:24:07;;;;;;;2.70;2.10;;;24.20;99.90;;;;;;5095054;28;20278;-68
2022/04/24 01:26:35;;;;;;;5.40;0.87;;;25.00;99.90;;;;;;5094868;28;20270;-68
2022/04/24 01:29:04;;;;;;;4.20;2.10;;;25.60;99.90;;;;;;5092992;28;20179;-68
2022/04/24 01:31:34;;;;;;;4.00;1.63;;;26.50;99.90;;;;;;5094628;28;20368;-68
2022/04/24 01:34:02;;;;;;;10.77;5.17;;;27.00;99.90;;;;;;5094729;28;20232;-68
2022/04/24 01:36:29;;;;;;;7.07;4.40;;;26.80;99.90;;;;;;5094760;28;20246;-69
2022/04/24 01:38:56;;;;;;;1.87;0.63;;;26.50;99.90;;;;;;5094602;28;20605;-67
2022/04/24 01:41:24;;;;;;;1.33;0.40;;;26.60;99.90;;;;;;5094284;28;20252;-68
2022/04/24 01:43:51;;;;;;;2.20;0.40;;;26.80;99.90;;;;;;5094648;28;20180;-68
2022/04/24 01:46:19;;;;;;;1.90;0.30;;;27.00;99.90;;;;;;5078080;28;20225;-68
2022/04/24 01:48:46;;;;;;;1.03;0.20;;;26.70;99.90;;;;;;5093256;28;20904;-69
2022/04/24 01:51:14;;;;;;;1.00;0.83;;;26.70;99.90;;;;;;5092950;28;20198;-68
2022/04/24 01:53:43;;;;;;;1.13;0.30;;;26.90;99.90;;;;;;5094705;28;20179;-68
2022/04/24 01:56:11;;;;;;;2.90;0.50;;;26.30;99.90;;;;;;5094095;28;20219;-68
2022/04/24 01:58:39;;;;;;;4.77;2.77;;;25.20;99.90;;;;;;5094182;28;20539;-68
2022/04/24 02:01:08;;;;;;;2.07;0.50;;;25.00;99.90;;;;;;5092559;28;20175;-69
2022/04/24 02:03:36;;;;;;;0.40;0.20;;;25.70;99.90;;;;;;5094344;28;20190;-69
2022/04/24 02:06:05;;;;;;;0.30;0.20;;;25.80;99.90;;;;;;5093645;28;20616;-68
2022/04/24 02:08:36;;;;;;;3.03;0.80;;;26.50;99.90;;;;;;5093910;28;20524;-69
2022/04/24 02:11:06;;;;;;;0.50;0.40;;;26.70;99.90;;;;;;5093998;28;20190;-68
2022/04/24 02:13:34;;;;;;;3.10;0.60;;;26.90;99.90;;;;;;5094436;28;20714;-68
2022/04/24 02:16:02;;;;;;;1.60;0.43;;;27.10;99.90;;;;;;5093341;28;20232;-68
2022/04/24 02:18:30;;;;;;;0.83;0.40;;;26.90;99.90;;;;;;5093268;28;20251;-69
2022/04/24 02:20:57;;;;;;;1.20;0.40;;;27.00;99.90;;;;;;5093711;28;20236;-68
2022/04/24 02:23:25;;;;;;;0.27;0.27;;;27.60;99.90;;;;;;5093977;28;20183;-69
2022/04/24 02:25:52;;;;;;;1.07;0.70;;;27.80;99.90;;;;;;5093898;28;20179;-69
2022/04/24 02:28:20;;;;;;;1.90;0.40;;;28.30;99.90;;;;;;5093567;28;20662;-68
2022/04/24 02:30:47;;;;;;;3.57;0.60;;;28.10;99.90;;;;;;5093223;28;20179;-69
2022/04/24 02:33:14;;;;;;;3.57;0.40;;;28.30;99.90;;;;;;5093518;28;20183;-68
2022/04/24 02:35:42;;;;;;;1.53;0.50;;;28.20;99.90;;;;;;5093573;28;20250;-67
2022/04/24 02:38:09;;;;;;;3.03;0.53;;;27.70;99.90;;;;;;5093429;28;20636;-68
2022/04/24 02:40:37;;;;;;;1.93;0.60;;;28.30;99.90;;;;;;5093535;28;20187;-68
2022/04/24 02:43:05;;;;;;;0.50;0.30;;;28.60;99.90;;;;;;5093295;28;20187;-68
2022/04/24 02:45:32;;;;;;;1.83;0.57;;;28.70;99.90;;;;;;5093042;28;20547;-67
2022/04/24 02:48:02;;;;;;;1.40;0.47;;;28.70;99.90;;;;;;5092541;28;20277;-68
2022/04/24 02:50:29;;;;;;;0.83;0.37;;;28.00;99.90;;;;;;5092974;28;20213;-68
2022/04/24 02:52:57;;;;;;;2.03;0.70;;;27.10;99.90;;;;;;5082367;28;20183;-68
2022/04/24 02:55:26;;;;;;;1.80;0.60;;;27.40;99.90;;;;;;5093532;28;20172;-67
2022/04/24 02:57:53;;;;;;;2.70;0.80;;;28.00;99.90;;;;;;5093409;28;20608;-68
2022/04/24 03:00:32;;;;;;;1.83;1.10;;;27.60;99.90;;;;;;5091650;28;20186;-66
2022/04/24 03:02:59;;;;;;;1.53;0.60;;;27.50;99.90;;;;;;5093271;28;20183;-67
2022/04/24 03:05:27;;;;;;;2.03;1.23;;;27.60;99.90;;;;;;5097919;28;20170;-67
2022/04/24 03:07:54;;;;;;;2.70;0.83;;;27.50;99.90;;;;;;5113423;28;20160;-67
2022/04/24 03:10:21;;;;;;;2.00;0.70;;;28.00;99.90;;;;;;5107568;28;20223;-67
2022/04/24 03:12:49;;;;;;;2.07;1.10;;;28.00;99.90;;;;;;5096088;28;20191;-67
2022/04/24 03:15:16;;;;;;;3.57;1.10;;;28.00;99.90;;;;;;5092929;28;20633;-67
2022/04/24 03:17:44;;;;;;;1.10;0.70;;;27.30;99.90;;;;;;5092025;28;20272;-67
2022/04/24 03:20:13;;;;;;;2.83;0.83;;;26.70;99.90;;;;;;5093092;28;20186;-67
2022/04/24 03:22:41;;;;;;;1.60;1.20;;;26.60;99.90;;;;;;5093243;28;20183;-67
2022/04/24 03:25:10;;;;;;;1.67;1.27;;;27.40;99.90;;;;;;5092920;28;20207;-67
2022/04/24 03:27:38;;;;;;;3.07;1.60;;;28.10;99.90;;;;;;5092511;28;20186;-67
2022/04/24 03:30:07;;;;;;;4.33;2.47;;;27.70;99.90;;;;;;5092813;28;20216;-67
2022/04/24 03:32:34;;;;;;;4.43;1.90;;;26.60;99.90;;;;;;5093076;28;20543;-68
2022/04/24 03:35:03;;;;;;;2.23;1.03;;;26.00;99.90;;;;;;5092835;28;20230;-68
2022/04/24 03:37:31;;;;;;;2.53;1.20;;;25.50;99.90;;;;;;5092812;28;20686;-68
2022/04/24 03:39:58;;;;;;;3.23;1.90;;;26.50;99.90;;;;;;5092677;28;20529;-69
2022/04/24 03:42:26;;;;;;;3.53;1.50;;;27.10;99.90;;;;;;5092673;28;20190;-68
2022/04/24 03:44:59;;;;;;;2.27;1.00;;;26.30;99.90;;;;;;5092162;28;20271;-68
2022/04/24 03:47:27;;;;;;;2.47;0.70;;;26.10;99.90;;;;;;5092588;28;20191;-68
2022/04/24 03:49:54;;;;;;;2.53;1.20;;;25.20;99.90;;;;;;5092420;28;20526;-69
2022/04/24 03:52:22;;;;;;;2.97;1.27;;;24.60;99.90;;;;;;5091275;28;20282;-68
2022/04/24 03:54:49;;;;;;;4.30;1.90;;;24.10;99.90;;;;;;5092033;28;20564;-68
2022/04/24 03:57:16;;;;;;;3.93;1.60;;;24.00;99.90;;;;;;5092484;28;20215;-67
2022/04/24 03:59:43;;;;;;;2.37;1.80;;;24.90;99.90;;;;;;5092452;28;20175;-68
2022/04/24 04:02:11;;;;;;;2.40;1.60;;;25.70;99.90;;;;;;5092134;28;20675;-67
2022/04/24 04:04:39;;;;;;;3.73;2.47;;;26.60;99.90;;;;;;5092172;28;20202;-68
2022/04/24 04:07:07;;;;;;;2.10;1.30;;;27.30;99.90;;;;;;5092421;28;20186;-68
2022/04/24 04:09:34;;;;;;;1.97;0.70;;;27.30;99.90;;;;;;5092269;28;20688;-68
2022/04/24 04:12:01;;;;;;;1.63;1.00;;;27.30;99.90;;;;;;5092284;28;20225;-68
2022/04/24 04:14:29;;;;;;;1.70;1.00;;;27.40;99.90;;;;;;5091282;28;20183;-68
2022/04/24 04:16:56;;;;;;;3.93;1.40;;;27.60;99.90;;;;;;5092233;28;20211;-69
2022/04/24 04:19:23;;;;;;;3.07;1.50;;;26.90;99.90;;;;;;5092130;28;20172;-67
2022/04/24 04:21:51;;;;;;;1.87;1.00;;;26.80;99.90;;;;;;5092166;28;20250;-68
2022/04/24 04:24:18;;;;;;;0.97;0.60;;;25.70;99.90;;;;;;5092057;28;20557;-68
2022/04/24 04:26:46;;;;;;;1.70;0.87;;;25.00;99.90;;;;;;5091957;28;20240;-69
2022/04/24 04:29:13;;;;;;;1.97;1.17;;;25.60;99.90;;;;;;5091796;28;20191;-69
2022/04/24 04:31:40;;;;;;;6.47;1.80;;;26.10;99.90;;;;;;5092116;28;20171;-68
2022/04/24 04:34:07;;;;;;;3.67;1.80;;;26.50;99.90;;;;;;5092010;28;20187;-69
2022/04/24 04:36:35;;;;;;;3.43;1.83;;;26.90;99.90;;;;;;5091535;28;20578;-68
2022/04/24 04:39:02;;;;;;;3.87;1.60;;;27.20;99.90;;;;;;5092036;28;20302;-69
2022/04/24 04:41:29;;;;;;;1.33;0.80;;;26.60;99.90;;;;;;5091478;28;20213;-68
2022/04/24 04:43:57;;;;;;;2.27;0.70;;;26.20;99.90;;;;;;5091983;28;20267;-68
2022/04/24 04:46:24;;;;;;;2.20;0.70;;;25.20;99.90;;;;;;5091519;28;20183;-69
2022/04/24 04:48:51;;;;;;;2.03;1.07;;;25.00;99.90;;;;;;5091785;28;20210;-68
2022/04/24 04:51:18;;;;;;;2.20;0.80;;;25.20;99.90;;;;;;5091762;28;20175;-69
2022/04/24 04:53:46;;;;;;;2.03;1.33;;;25.40;99.90;;;;;;5091835;28;20232;-68
2022/04/24 04:56:13;;;;;;;3.43;1.97;;;25.50;99.90;;;;;;5090842;28;20257;-68
2022/04/24 04:58:40;;;;;;;7.07;2.73;;;25.60;99.90;;;;;;5091327;28;20195;-68
2022/04/24 05:01:08;;;;;;;5.63;2.07;;;25.70;99.90;;;;;;5091130;28;20180;-68
2022/04/24 05:03:35;;;;;;;7.10;3.40;;;25.90;99.90;;;;;;5091344;28;20308;-67
2022/04/24 05:06:02;;;;;;;3.30;0.73;;;25.80;99.90;;;;;;5091665;28;20530;-69
2022/04/24 05:08:30;;;;;;;3.70;0.77;;;25.30;99.90;;;;;;5091386;28;20179;-69
2022/04/24 05:10:57;;;;;;;2.80;0.80;;;24.80;99.90;;;;;;5091784;28;20175;-69
2022/04/24 05:13:24;;;;;;;3.10;1.07;;;24.50;99.90;;;;;;5091651;28;20165;-68
2022/04/24 05:15:52;;;;;;;7.60;4.03;;;25.10;99.90;;;;;;5091134;28;20241;-69
2022/04/24 05:18:19;;;;;;;4.53;3.10;;;25.20;99.90;;;;;;5090057;28;20190;-68
2022/04/24 05:20:47;;;;;;;5.83;3.80;;;25.10;99.90;;;;;;5091067;28;20179;-68
2022/04/24 05:23:14;;;;;;;7.23;3.07;;;24.70;99.90;;;;;;5091120;28;20194;-68
2022/04/24 05:25:41;;;;;;;3.80;1.30;;;24.60;99.90;;;;;;5091288;28;20191;-68
2022/04/24 05:28:09;;;;;;;2.10;1.50;;;24.50;99.90;;;;;;5091016;28;20186;-68
2022/04/24 05:30:36;;;;;;;1.63;1.00;;;24.40;99.90;;;;;;5091403;28;20178;-68
2022/04/24 05:33:04;;;;;;;4.97;1.67;;;24.20;99.90;;;;;;5091506;28;20171;-68
2022/04/24 05:35:31;;;;;;;3.90;1.47;;;23.70;99.90;;;;;;5091047;28;20764;-68
2022/04/24 05:37:59;;;;;;;1.10;0.70;;;23.80;99.90;;;;;;5091214;28;20187;-69
2022/04/24 05:40:26;;;;;;;2.30;0.57;;;23.50;99.90;;;;;;5093339;28;20187;-68
2022/04/24 05:42:55;;;;;;;2.70;0.80;;;23.10;99.90;;;;;;5095071;28;20186;-68
2022/04/24 05:45:24;;;;;;;1.80;0.60;;;23.20;99.90;;;;;;5094630;28;20182;-68
2022/04/24 05:47:56;;;;;;;1.17;0.50;;;23.50;99.90;;;;;;5094134;28;20611;-68
2022/04/24 05:50:25;;;;;;;1.93;1.10;;;23.80;99.90;;;;;;5094848;28;20182;-69
2022/04/24 05:52:56;;;;;;;6.20;1.63;;;23.90;99.90;;;;;;5094605;28;20248;-68
2022/04/24 05:55:24;;;;;;;1.10;0.70;;;23.80;99.90;;;;;;5093242;28;20206;-68
2022/04/24 05:57:52;;;;;;;2.67;0.67;;;23.40;99.90;;;;;;5094597;28;20215;-69
2022/04/24 06:00:21;;;;;;;5.13;1.30;;;22.90;99.90;;;;;;5094560;28;20171;-69
2022/04/24 06:02:48;;;;;;;5.50;1.70;;;22.70;99.90;;;;;;5094449;28;20607;-69
2022/04/24 06:05:15;;;;;;;1.83;1.30;;;22.60;99.90;;;;;;5094061;28;20232;-68
2022/04/24 06:07:43;;;;;;;2.90;0.97;;;22.30;99.90;;;;;;5094477;28;20189;-68
2022/04/24 06:10:11;;;;;;;3.33;1.33;;;22.10;99.90;;;;;;5094410;28;20653;-67
2022/04/24 06:12:48;;;;;;;2.80;1.10;;;22.10;99.90;;;;;;5094160;28;20175;-67
2022/04/24 06:15:20;;;;;;;4.50;1.00;;;22.00;99.90;;;;;;5074407;28;20263;-67
2022/04/24 06:17:50;;;;;;;1.10;0.60;;;21.80;99.90;;;;;;5094289;28;20214;-68
2022/04/24 06:20:19;;;;;;;2.57;1.00;;;21.70;99.90;;;;;;5076558;28;20179;-67
2022/04/24 06:22:50;;;;;;;2.90;0.87;;;21.70;99.90;;;;;;5092728;28;20573;-68
2022/04/24 06:25:25;;;;;;;4.93;1.67;;;21.60;99.90;;;;;;5093865;28;20261;-67
2022/04/24 06:27:53;;;;;;;2.57;1.40;;;21.60;99.90;;;;;;5093899;28;20544;-67
2022/04/24 06:30:23;;;;;;;2.37;0.93;;;21.60;99.90;;;;;;5093537;28;20313;-66
2022/04/24 06:32:50;;;;;;;1.10;0.60;;;21.40;99.90;;;;;;5093409;28;20179;-67
2022/04/24 06:35:18;;;;;;;2.83;0.60;;;21.40;99.90;;;;;;5093924;28;20265;-68
2022/04/24 06:37:47;;;;;;;1.87;0.97;;;21.30;99.90;;;;;;5093732;28;20214;-67
2022/04/24 06:40:16;;;;;;;2.43;1.20;;;21.20;99.90;;;;;;5093775;28;20167;-65
2022/04/24 06:42:52;;;;;;;2.37;1.23;;;21.20;99.90;;;;;;5093772;28;20191;-66
2022/04/24 06:45:25;;;;;;;4.27;1.57;;;21.30;99.90;;;;;;5093860;28;20200;-66
2022/04/24 06:47:57;;;;;;;3.63;1.30;;;21.50;99.90;;;;;;5093603;28;20747;-67
2022/04/24 06:50:26;;;;;;;2.53;1.30;;;21.60;99.90;;;;;;5093432;28;20210;-67
2022/04/24 06:53:00;;;;;;;4.73;1.50;;;21.40;99.90;;;;;;5093259;28;20182;-66
2022/04/24 06:55:29;;;;;;;5.27;2.53;;;21.30;99.90;;;;;;5093095;28;20186;-67
2022/04/24 06:57:57;;;;;;;2.70;1.30;;;21.30;99.90;;;;;;5092266;28;20189;-68
2022/04/24 07:00:27;;;;;;;6.17;2.00;;;20.90;99.90;;;;;;5093162;28;20175;-67
2022/04/24 07:02:55;;;;;;;4.57;1.40;;;20.80;99.90;;;;;;5093560;28;20190;-68
2022/04/24 07:05:25;;;;;;;2.03;1.23;;;20.60;99.90;;;;;;5093076;28;20663;-68
2022/04/24 07:07:52;;;;;;;3.70;1.00;;;20.60;99.90;;;;;;5093329;28;20185;-68
2022/04/24 07:10:20;;;;;;;3.20;1.23;;;20.40;99.90;;;;;;5092866;28;20178;-67
2022/04/24 07:12:49;;;;;;;3.40;0.70;;;20.40;99.90;;;;;;5093199;28;20183;-67
2022/04/24 07:15:17;;;;;;;2.37;1.20;;;20.30;99.90;;;;;;5092623;28;20218;-67
2022/04/24 07:17:49;;;;;;;3.13;0.90;;;20.30;99.90;;;;;;5093058;28;20281;-67
2022/04/24 07:20:18;;;;;;;2.37;0.80;;;20.10;99.90;;;;;;5092909;28;20186;-67
2022/04/24 07:23:00;;;;;;;4.17;1.53;;;20.10;99.90;;;;;;5093162;28;20268;-68
2022/04/24 07:25:37;;;;;;;4.30;1.00;;;20.10;99.90;;;;;;5092713;28;20186;-67
2022/04/24 07:28:05;;;;;;;4.13;1.00;;;20.10;99.90;;;;;;5092933;28;20198;-68
2022/04/24 07:30:32;;;;;;;6.07;0.90;;;20.00;99.90;;;;;;5092846;28;20264;-67
2022/04/24 07:33:01;;;;;;;5.00;1.20;;;20.00;99.90;;;;;;5092960;28;20179;-68
2022/04/24 07:35:31;;;;;;;6.53;1.17;;;20.00;99.90;;;;;;5092399;28;20187;-67
2022/04/24 07:37:58;;;;;;;6.53;1.10;;;20.00;99.90;;;;;;5092743;28;20676;-67
2022/04/24 07:40:28;;;;;;;8.70;1.50;;;20.00;99.90;;;;;;5092593;28;20185;-67
2022/04/24 07:43:07;;;;;;;8.03;1.20;;;20.00;99.90;;;;;;5092380;28;20603;-67
2022/04/24 07:45:38;;;;;;;3.03;1.20;;;19.90;99.90;;;;;;5092345;28;20676;-67
2022/04/24 07:48:08;;;;;;;3.13;1.43;;;19.90;99.90;;;;;;5092317;28;20180;-66
2022/04/24 07:50:39;;;;;;;2.60;1.10;;;19.90;99.90;;;;;;5092577;28;20544;-67
2022/04/24 07:53:07;;;;;;;4.67;1.40;;;19.90;99.90;;;;;;5091872;28;20177;-68
2022/04/24 07:55:35;;;;;;;4.23;1.23;;;19.90;99.90;;;;;;5091030;28;20195;-67
2022/04/24 07:58:02;;;;;;;5.03;1.50;;;19.90;99.90;;;;;;5091559;28;20280;-67
2022/04/24 08:00:31;;;;;;;3.37;1.20;;;19.80;99.90;;;;;;5092195;28;20231;-66
2022/04/24 08:03:03;;;;;;;1.33;0.90;;;19.80;99.90;;;;;;5091808;28;20190;-67
2022/04/24 08:05:33;;;;;;;4.27;0.90;;;19.80;99.90;;;;;;5091943;28;20548;-68
2022/04/24 08:08:02;;;;;;;2.47;0.90;;;19.90;99.90;;;;;;5092140;28;20187;-67
2022/04/24 08:10:36;;;;;;;3.13;1.23;;;19.90;99.90;;;;;;5091960;28;20194;-67
2022/04/24 08:13:05;;;;;;;2.70;1.17;;;19.90;99.90;;;;;;5090746;28;20186;-66
2022/04/24 08:15:33;;;;;;;2.77;1.20;;;19.80;99.90;;;;;;5091178;28;20597;-67
2022/04/24 08:18:02;;;;;;;3.27;1.10;;;19.80;99.90;;;;;;5091978;28;20192;-67
2022/04/24 08:20:31;;;;;;;4.00;1.10;;;19.80;99.90;;;;;;5091860;28;20236;-68
2022/04/24 08:23:02;;;;;;;2.90;1.30;;;19.80;99.90;;;;;;5092106;28;20205;-67
2022/04/24 08:25:35;;;;;;;1.93;1.10;;;19.80;99.90;;;;;;5091921;28;20198;-68
2022/04/24 08:28:08;;;;;;;5.40;1.00;;;19.80;99.90;;;;;;5091507;28;20634;-67
2022/04/24 08:30:40;;;;;;;2.40;0.73;;;19.80;99.90;;;;;;5091867;28;20199;-67
2022/04/24 08:33:09;;;;;;;4.57;1.07;;;19.70;99.90;;;;;;5091913;28;20195;-67
2022/04/24 08:35:36;;;;;;;2.03;0.90;;;19.70;99.90;;;;;;5091680;28;20193;-68
2022/04/24 08:38:04;;;;;;;4.47;1.30;;;19.70;99.90;;;;;;5091504;28;20193;-67
2022/04/24 08:40:32;;;;;;;4.43;1.60;;;19.60;99.90;;;;;;5091776;28;20189;-66
2022/04/24 08:43:00;;;;;;;2.70;1.77;;;19.60;99.90;;;;;;5091547;28;20218;-65
2022/04/24 08:45:30;;;;;;;2.37;1.60;;;19.60;99.90;;;;;;5091752;28;20669;-66
2022/04/24 08:47:58;;;;;;;4.83;2.30;;;19.50;99.90;;;;;;5091004;28;20183;-66
2022/04/24 08:50:31;;;;;;;3.67;1.70;;;19.50;99.90;;;;;;5080518;28;20187;-66
2022/04/24 08:52:59;;;;;;;7.27;2.17;;;19.50;99.90;;;;;;5091896;28;20171;-68
2022/04/24 08:55:32;;;;;;;5.40;2.40;;;19.30;99.90;;;;;;5091745;28;20221;-67
2022/04/24 08:58:00;;;;;;;3.23;1.97;;;19.40;99.90;;;;;;5091671;28;20191;-67
2022/04/24 09:00:29;;;;;;;5.53;1.53;;;19.40;99.90;;;;;;5091520;28;20234;-67
2022/04/24 09:03:00;;;;;;;4.47;1.40;;;19.30;99.90;;;;;;5091388;28;20195;-68
2022/04/24 09:05:30;;;;;;;5.23;1.70;;;19.40;99.90;;;;;;5092572;28;20194;-68
2022/04/24 09:08:14;;;;;;;2.40;1.20;;;19.30;99.90;;;;;;5092570;28;20183;-70
2022/04/24 09:10:55;;;;;;;3.93;1.30;;;19.30;99.90;;;;;;5092148;28;20535;-68
2022/04/24 09:14:24;;;;;;;4.67;1.50;;;19.30;99.90;;;;;;5072470;28;20188;-68
2022/04/24 09:16:35;;;;;;;5.20;1.50;;;19.30;99.90;;;;;;5072000;28;20730;-69
2022/04/24 09:19:03;;;;;;;6.93;2.33;;;19.30;99.90;;;;;;5096501;28;20190;-69
2022/04/24 09:21:31;;;;;;;3.50;1.87;;;19.30;99.90;;;;;;5096635;28;20167;-69
2022/04/24 09:24:01;;;;;;;3.50;2.20;;;19.20;99.90;;;;;;5096825;28;20197;-70
2022/04/24 09:26:28;;;;;;;7.50;2.27;;;19.20;99.90;;;;;;5096609;28;20176;-69
2022/04/24 09:28:56;;;;;;;8.60;2.53;;;19.20;99.90;;;;;;5095881;28;20247;-68
2022/04/24 09:31:29;;;;;;;5.47;2.10;;;19.10;99.90;;;;;;5096597;28;20172;-70
2022/04/24 09:33:59;;;;;;;4.17;1.93;;;19.20;99.90;;;;;;5096654;28;20175;-69
2022/04/24 09:36:28;;;;;;;2.60;1.60;;;19.20;99.90;;;;;;5096092;28;20295;-69
2022/04/24 09:38:55;;;;;;;5.07;1.83;;;19.10;99.90;;;;;;5095759;28;20180;-69
2022/04/24 09:41:24;;;;;;;1.53;0.80;;;19.10;99.90;;;;;;5096279;28;20243;-69
2022/04/24 09:43:51;;;;;;;1.50;0.63;;;18.90;99.90;;;;;;5096058;28;20546;-68
2022/04/24 09:46:26;;;;;;;3.20;1.00;;;18.80;99.90;;;;;;5095445;28;20176;-69
2022/04/24 09:48:57;;;;;;;3.90;0.80;;;18.60;99.90;;;;;;5095648;28;20171;-71
2022/04/24 09:51:25;;;;;;;4.53;1.10;;;18.50;99.90;;;;;;5075773;28;20262;-68
2022/04/24 09:53:58;;;;;;;1.67;1.00;;;18.40;99.90;;;;;;5075800;28;20176;-69
2022/04/24 09:56:29;;;;;;;1.87;1.13;;;18.50;99.90;;;;;;5090226;28;20202;-69
2022/04/24 09:58:58;;;;;;;3.53;1.30;;;18.30;99.90;;;;;;5095783;28;20184;-70
2022/04/24 10:01:29;;;;;;;2.90;1.33;;;18.20;99.90;;;;;;5095770;28;20250;-69
2022/04/24 10:03:57;;;;;;;5.60;1.50;;;18.20;99.90;;;;;;5095863;28;20190;-69
2022/04/24 10:06:25;;;;;;;3.67;1.10;;;18.20;99.90;;;;;;5094519;28;20186;-69
2022/04/24 10:08:53;;;;;;;2.60;1.00;;;18.10;99.90;;;;;;5095476;28;20256;-68
2022/04/24 10:11:21;;;;;;;4.60;0.87;;;17.90;99.90;;;;;;5095742;28;20194;-68
2022/04/24 10:13:51;;;;;;;4.40;0.97;;;17.90;99.90;;;;;;5095828;28;20237;-69
2022/04/24 10:16:34;;;;;;;5.47;0.90;;;17.90;99.90;;;;;;5094181;28;20238;-70
2022/04/24 10:19:14;;;;;;;3.60;0.73;;;17.80;99.90;;;;;;5094914;28;20632;-69
2022/04/24 10:22:05;;;;;;;1.87;0.80;;;17.80;99.90;;;;;;5096271;28;20175;-69
2022/04/24 10:24:43;;;;;;;3.40;0.90;;;17.70;99.90;;;;;;5095304;28;20668;-69
2022/04/24 10:27:12;;;;;;;2.80;0.90;;;17.60;99.90;;;;;;5095094;28;20183;-69
2022/04/24 10:29:53;;;;;;;2.00;1.07;;;17.70;99.90;;;;;;5094816;28;20174;-69
2022/04/24 10:32:33;;;;;;;5.03;1.10;;;17.70;99.90;;;;;;5095187;28;20218;-67
2022/04/24 10:35:01;;;;;;;3.60;1.40;;;17.70;99.90;;;;;;5094998;28;20633;-69
2022/04/24 10:37:33;;;;;;;3.00;1.17;;;17.70;99.90;;;;;;5095311;28;20222;-69
2022/04/24 10:40:03;;;;;;;4.57;1.50;;;17.70;99.90;;;;;;5094790;28;20305;-70
2022/04/24 10:42:33;;;;;;;2.13;1.40;;;17.60;99.90;;;;;;5095055;28;20285;-69
2022/04/24 10:45:15;;;;;;;3.03;1.50;;;17.50;99.90;;;;;;5095129;28;20176;-69
2022/04/24 10:47:55;;;;;;;2.80;1.47;;;17.50;99.90;;;;;;5094972;28;20175;-68
2022/04/24 10:50:23;;;;;;;1.57;1.10;;;17.40;99.90;;;;;;5093452;28;20183;-67
2022/04/24 10:52:55;;;;;;;2.77;1.30;;;17.40;99.90;;;;;;5095059;28;20652;-67
2022/04/24 10:55:30;;;;;;;1.57;0.87;;;17.40;99.90;;;;;;5094846;28;20176;-69
2022/04/24 10:58:00;;;;;;;3.43;1.23;;;17.20;99.90;;;;;;5093202;28;20208;-69
2022/04/24 11:00:34;;;;;;;3.57;0.83;;;17.10;99.90;;;;;;5094337;28;20670;-69
2022/04/24 11:03:15;;;;;;;1.67;0.93;;;17.00;99.90;;;;;;5094812;28;20218;-69
2022/04/24 11:05:45;;;;;;;3.37;0.80;;;17.00;99.90;;;;;;5094720;28;20284;-69
2022/04/24 11:08:18;;;;;;;3.47;0.83;;;16.90;99.90;;;;;;5094662;28;20179;-69
2022/04/24 11:10:47;;;;;;;1.27;0.60;;;16.80;99.90;;;;;;5074187;28;20195;-69
2022/04/24 11:13:17;;;;;;;1.17;0.57;;;16.60;99.90;;;;;;5074219;28;20168;-68
2022/04/24 11:15:47;;;;;;;1.10;0.50;;;16.60;99.90;;;;;;5074172;28;20693;-68
2022/04/24 11:18:25;;;;;;;1.07;0.70;;;16.50;99.90;;;;;;5091591;28;20198;-69
2022/04/24 11:21:03;;;;;;;0.50;0.40;;;16.50;99.90;;;;;;5094440;28;20636;-68
2022/04/24 11:23:33;;;;;;;2.33;0.60;;;16.50;99.90;;;;;;5094094;28;20504;-67
2022/04/24 11:26:02;;;;;;;0.67;0.40;;;16.50;99.90;;;;;;5094632;28;20183;-69
2022/04/24 11:28:37;;;;;;;0.57;0.57;;;16.60;99.90;;;;;;5093642;28;20183;-68
2022/04/24 11:31:15;;;;;;;2.60;0.70;;;16.60;99.90;;;;;;5094239;28;20528;-68
2022/04/24 11:34:00;;;;;;;1.73;0.70;;;16.60;99.90;;;;;;5092760;28;20209;-69
2022/04/24 11:36:33;;;;;;;1.00;0.60;;;16.50;99.90;;;;;;5094278;28;20348;-69
2022/04/24 11:39:03;;;;;;;1.30;0.63;;;16.50;99.90;;;;;;5093211;28;20179;-68
2022/04/24 11:41:32;;;;;;;2.00;0.73;;;16.50;99.90;;;;;;5093903;28;20175;-68
2022/04/24 11:50:13;;;;;;;2.30;0.67;;;16.50;99.90;;;;;;5093663;28;20171;-69
2022/04/24 11:52:23;;;;;;;1.60;0.70;;;16.60;99.90;;;;;;5093774;28;20186;-68
2022/04/24 11:54:53;;;;;;;1.10;0.77;;;16.60;99.90;;;;;;5093636;28;20647;-69
2022/04/24 11:57:21;;;;;;;1.40;0.73;;;16.70;99.90;;;;;;5094054;28;20211;-68
2022/04/24 11:59:57;;;;;;;2.10;0.60;;;16.70;99.90;;;;;;5093775;28;20179;-69
2022/04/24 12:02:29;;;;;;;2.93;1.00;;;16.70;99.90;;;;;;5093930;28;20527;-67
2022/04/24 12:04:56;;;;;;;1.53;0.93;;;16.80;99.90;;;;;;5093463;28;20272;-69
2022/04/24 12:07:33;;;;;;;2.63;1.03;;;16.80;99.90;;;;;;5093564;28;20185;-69
2022/04/24 12:10:09;;;;;;;1.60;1.00;;;16.80;99.90;;;;;;5093528;28;20181;-70
2022/04/24 12:12:51;;;;;;;3.40;1.20;;;16.70;99.90;;;;;;5093112;28;20178;-69
2022/04/24 12:15:21;;;;;;;1.43;0.90;;;16.70;99.90;;;;;;5091789;28;20342;-68
2022/04/24 12:17:50;;;;;;;2.10;1.20;;;16.70;99.90;;;;;;5093534;28;20232;-69
2022/04/24 12:20:18;;;;;;;1.13;0.80;;;16.70;99.90;;;;;;5093832;28;20174;-70
2022/04/24 12:22:46;;;;;;;1.17;0.73;;;16.70;99.90;;;;;;5093813;28;20186;-68
2022/04/24 12:25:20;;;;;;;2.90;1.03;;;16.80;99.90;;;;;;5092925;28;20179;-68
2022/04/24 12:27:57;;;;;;;1.10;0.90;;;16.80;99.90;;;;;;5093022;28;20216;-69
2022/04/24 12:30:34;;;;;;;1.37;0.93;;;16.70;99.90;;;;;;5093242;28;20182;-70
2022/04/24 12:33:08;;;;;;;1.40;0.90;;;16.80;99.90;;;;;;5093192;28;20198;-68
2022/04/24 12:35:35;;;;;;;1.77;1.00;;;16.80;99.90;;;;;;5093024;28;20773;-68
2022/04/24 12:38:14;;;;;;;1.40;0.70;;;16.80;99.90;;;;;;5093282;28;20218;-70
2022/04/24 12:40:41;;;;;;;0.93;0.73;;;16.70;99.90;;;;;;5092969;28;20267;-69
2022/04/24 12:43:09;;;;;;;2.43;1.10;;;16.70;99.90;;;;;;5092601;28;20176;-68
2022/04/24 12:45:37;;;;;;;7.03;3.47;;;16.60;99.90;;;;;;5092541;28;20258;-69
2022/04/24 12:48:04;;;;;;;4.60;2.43;;;16.60;99.90;;;;;;5093719;28;20174;-69
2022/04/24 12:50:32;;;;;;;3.40;2.00;;;16.60;99.90;;;;;;5097320;28;20258;-68
2022/04/24 12:52:59;;;;;;;2.67;2.17;;;16.50;99.90;;;;;;5097316;28;20179;-69
2022/04/24 12:55:27;;;;;;;4.77;1.33;;;16.50;99.90;;;;;;5096998;28;20183;-70
2022/04/24 12:57:55;;;;;;;1.87;0.90;;;16.40;99.90;;;;;;5096773;28;20243;-70
2022/04/24 13:00:22;;;;;;;3.63;1.20;;;16.40;99.90;;;;;;5097068;28;20186;-69
2022/04/24 13:02:52;;;;;;;1.50;1.30;;;16.30;99.90;;;;;;5095965;28;20219;-69
2022/04/24 13:05:19;;;;;;;2.07;1.40;;;16.20;99.90;;;;;;5096717;28;20185;-68